Terminal Aerodrome Forecast
Issued by NWS

Home | Current Version | Previous Version | Graphics & Text | Print | Product List | Glossary On
Versions: 1 2 3 4 5 6 7 8 9 10 11 12 13 14 15 16 17 18
059
FTUS43 KIWX 271120
TAFSBN
TAF
KSBN 271120Z 2712/2812 24005KT 4SM BR OVC003
     FM271800 VRB03KT P6SM OVC015
     FM272100 07005KT P6SM VCSH OVC015
     FM272300 03006KT 5SM SHRA OVC015
     FM280300 02007KT 1SM SHRA OVC006
     FM280800 01007KT P6SM OVC008
     FM280900 36007KT P6SM BKN003
     FM281000 36007KT P6SM BKN008=

USA.gov is the U.S. government's official web portal to all federal, state and local government web resources and services.